createdAt,value
2018-07-01T00:03:26.208Z,23.20
2018-07-01T00:08:29.432Z,23.20
2018-07-01T00:13:32.644Z,23.10
2018-07-01T00:18:35.873Z,23.00
2018-07-01T00:23:39.071Z,22.70
2018-07-01T00:28:42.277Z,22.80
2018-07-01T00:33:45.502Z,22.80
2018-07-01T00:38:48.720Z,22.70
2018-07-01T00:43:51.920Z,22.80
2018-07-01T00:48:55.156Z,22.70
2018-07-01T00:53:58.353Z,22.40
2018-07-01T00:59:01.563Z,22.60
2018-07-01T01:04:04.753Z,22.30
2018-07-01T01:09:10.568Z,22.50
2018-07-01T01:14:13.811Z,22.60
2018-07-01T01:19:17.055Z,22.20
2018-07-01T01:24:20.300Z,22.50
2018-07-01T01:29:23.541Z,22.30
2018-07-01T01:34:26.811Z,22.50
2018-07-01T01:39:32.807Z,22.50
2018-07-01T01:44:43.491Z,22.50
2018-07-01T01:49:59.134Z,22.30
2018-07-01T01:55:10.732Z,22.30
2018-07-01T02:00:19.354Z,22.20
2018-07-01T02:05:27.500Z,22.20
2018-07-01T02:10:30.772Z,22.00
2018-07-01T02:16:37.127Z,22.30
2018-07-01T02:21:40.362Z,22.20
2018-07-01T02:26:43.583Z,22.00
2018-07-01T02:31:46.743Z,21.90
2018-07-01T02:36:49.953Z,22.10
2018-07-01T02:41:53.126Z,21.80
2018-07-01T02:46:56.316Z,21.90
2018-07-01T02:51:59.520Z,21.90
2018-07-01T02:57:02.736Z,21.90
2018-07-01T03:02:05.947Z,21.60
2018-07-01T03:12:12.240Z,21.80
2018-07-01T03:17:15.492Z,21.80
2018-07-01T03:22:18.720Z,21.70
2018-07-01T03:27:21.960Z,21.60
2018-07-01T03:32:25.201Z,21.70
2018-07-01T03:37:28.440Z,21.70
2018-07-01T03:42:31.686Z,21.80
2018-07-01T03:47:34.896Z,21.60
2018-07-01T03:52:38.131Z,21.60
2018-07-01T03:57:41.390Z,21.70
2018-07-01T04:02:44.601Z,21.40
2018-07-01T04:07:47.852Z,21.60
2018-07-01T04:12:51.104Z,21.40
2018-07-01T04:22:57.367Z,21.40
2018-07-01T04:28:00.576Z,21.30
2018-07-01T04:33:03.796Z,21.30
2018-07-01T04:38:07.028Z,21.50
2018-07-01T04:43:10.279Z,21.10
2018-07-01T04:48:13.523Z,21.50
2018-07-01T04:53:16.759Z,21.50
2018-07-01T04:58:19.976Z,21.40
2018-07-01T05:03:23.223Z,21.30
2018-07-01T05:08:26.479Z,21.40
2018-07-01T05:13:29.715Z,21.50
2018-07-01T05:18:32.945Z,21.50
2018-07-01T05:23:36.148Z,21.30
2018-07-01T05:28:40.156Z,21.60
2018-07-01T05:33:43.392Z,21.40
2018-07-01T05:43:49.600Z,21.30
2018-07-01T05:48:52.812Z,21.70
2018-07-01T05:53:56.005Z,21.50
2018-07-01T05:58:59.420Z,21.50
2018-07-01T06:04:02.599Z,21.80
2018-07-01T06:09:07.876Z,21.70
2018-07-01T06:14:11.103Z,21.90
2018-07-01T06:19:14.460Z,21.90
2018-07-01T06:24:17.704Z,22.30
2018-07-01T06:29:20.927Z,22.10
2018-07-01T06:34:24.168Z,22.20
2018-07-01T06:39:27.407Z,22.20
2018-07-01T06:44:30.679Z,22.30
2018-07-01T06:49:33.932Z,22.10
2018-07-01T06:54:37.177Z,22.70
2018-07-01T07:01:48.616Z,22.20
2018-07-01T07:06:51.844Z,22.70
2018-07-01T07:11:55.308Z,22.50
2018-07-01T07:16:58.551Z,22.60
2018-07-01T07:22:01.946Z,22.60
2018-07-01T07:27:05.224Z,22.70
2018-07-01T07:32:08.533Z,22.80
2018-07-01T07:37:11.844Z,22.90
2018-07-01T07:42:15.159Z,22.70
2018-07-01T07:47:18.406Z,22.90
2018-07-01T07:52:21.741Z,22.90
2018-07-01T07:57:24.860Z,22.90
2018-07-01T08:02:28.112Z,22.80
2018-07-01T08:07:31.456Z,22.90
2018-07-01T08:12:34.674Z,22.80
2018-07-01T08:17:37.948Z,23.10
2018-07-01T08:22:41.143Z,23.20
2018-07-01T08:27:44.389Z,23.20
2018-07-01T08:32:47.624Z,23.30
2018-07-01T08:37:50.857Z,23.30
2018-07-01T08:42:54.074Z,23.40
2018-07-01T08:47:57.296Z,23.40
2018-07-01T08:53:00.623Z,23.40
2018-07-01T08:58:03.851Z,23.40
2018-07-01T09:03:07.116Z,23.50
2018-07-01T09:08:10.363Z,23.50
2018-07-01T09:13:13.575Z,23.50
2018-07-01T09:18:16.868Z,23.60
2018-07-01T09:23:20.174Z,23.70
2018-07-01T09:28:23.428Z,23.60
2018-07-01T09:33:26.676Z,23.60
2018-07-01T09:38:29.912Z,23.60
2018-07-01T09:43:33.134Z,23.70
2018-07-01T09:48:36.380Z,23.80
2018-07-01T09:53:41.424Z,23.90
2018-07-01T09:58:44.641Z,23.90
2018-07-01T10:03:47.843Z,23.90
2018-07-01T10:08:51.107Z,23.90
2018-07-01T10:13:54.364Z,24.00
2018-07-01T10:18:57.750Z,24.00
2018-07-01T10:24:00.822Z,24.10
2018-07-01T10:29:07.995Z,24.10
2018-07-01T10:34:12.025Z,24.20
2018-07-01T10:39:16.295Z,24.20
2018-07-01T10:44:19.524Z,24.30
2018-07-01T10:49:22.716Z,24.40
2018-07-01T10:54:25.928Z,24.50
2018-07-01T10:59:29.133Z,24.60
2018-07-01T11:04:32.488Z,24.70
2018-07-01T11:09:36.775Z,24.60
2018-07-01T11:14:39.983Z,24.50
2018-07-01T11:19:43.334Z,24.50
2018-07-01T11:24:46.583Z,24.60
2018-07-01T11:29:49.855Z,24.60
2018-07-01T11:34:53.047Z,24.70
2018-07-01T11:39:56.243Z,24.80
2018-07-01T11:44:59.596Z,24.80
2018-07-01T11:50:02.813Z,24.80
2018-07-01T11:55:06.015Z,24.90
2018-07-01T12:00:09.336Z,24.90
2018-07-01T12:05:16.656Z,24.90
2018-07-01T12:10:15.777Z,24.90
2018-07-01T12:15:19.056Z,24.90
2018-07-01T12:20:22.284Z,25.10
2018-07-01T12:25:25.596Z,25.00
2018-07-01T12:30:28.832Z,25.20
2018-07-01T12:35:32.051Z,25.30
2018-07-01T12:40:35.346Z,25.20
2018-07-01T12:45:38.580Z,25.20
2018-07-01T12:50:41.801Z,25.40
2018-07-01T12:55:45.076Z,25.50
2018-07-01T13:00:48.312Z,25.50
2018-07-01T13:05:51.545Z,25.60
2018-07-01T13:10:54.871Z,25.50
2018-07-01T13:15:58.148Z,25.40
2018-07-01T13:21:01.552Z,25.40
2018-07-01T13:26:05.040Z,25.40
2018-07-01T13:31:08.316Z,25.50
2018-07-01T13:36:11.561Z,25.40
2018-07-01T13:41:14.820Z,25.40
2018-07-01T13:46:18.039Z,25.60
2018-07-01T13:51:21.266Z,25.50
2018-07-01T13:56:24.511Z,25.60
2018-07-01T14:01:27.768Z,25.70
2018-07-01T14:06:31.088Z,25.70
2018-07-01T14:11:34.265Z,25.70
2018-07-01T14:16:37.970Z,25.70
2018-07-01T14:21:41.191Z,25.70
2018-07-01T14:26:44.359Z,25.80
2018-07-01T14:31:47.616Z,25.90
2018-07-01T14:36:50.795Z,25.90
2018-07-01T14:41:53.980Z,25.90
2018-07-01T14:46:57.179Z,26.00
2018-07-01T14:52:00.359Z,26.10
2018-07-01T14:57:03.564Z,26.10
2018-07-01T15:02:07.091Z,25.90
2018-07-01T15:07:10.279Z,26.00
2018-07-01T15:12:13.500Z,26.00
2018-07-01T15:17:16.713Z,26.10
2018-07-01T15:22:19.954Z,26.10
2018-07-01T15:27:23.159Z,26.20
2018-07-01T15:32:26.370Z,26.20
2018-07-01T15:37:29.552Z,26.20
2018-07-01T15:42:32.776Z,26.20
2018-07-01T15:47:35.975Z,26.10
2018-07-01T15:52:39.168Z,26.10
2018-07-01T15:57:42.419Z,26.10
2018-07-01T16:02:45.604Z,26.20
2018-07-01T16:07:48.788Z,26.20
2018-07-01T16:12:51.975Z,26.20
2018-07-01T16:17:55.296Z,26.20
2018-07-01T16:22:58.395Z,26.20
2018-07-01T16:28:07.091Z,26.30
2018-07-01T16:33:10.272Z,26.30
2018-07-01T16:38:13.468Z,26.40
2018-07-01T16:43:16.712Z,26.40
2018-07-01T16:48:19.912Z,26.40
2018-07-01T16:53:23.124Z,26.40
2018-07-01T16:58:26.315Z,26.50
2018-07-01T17:03:29.516Z,26.50
2018-07-01T17:08:32.887Z,26.50
2018-07-01T17:13:36.126Z,26.50
2018-07-01T17:18:40.287Z,26.50
2018-07-01T17:23:44.375Z,26.50
2018-07-01T17:28:47.643Z,26.50
2018-07-01T17:33:53.983Z,26.50
2018-07-01T17:38:57.236Z,26.50
2018-07-01T17:44:00.452Z,26.60
2018-07-01T17:49:03.623Z,26.60
2018-07-01T17:54:07.206Z,26.50
2018-07-01T17:59:10.407Z,26.50
2018-07-01T18:04:13.651Z,26.50
2018-07-01T18:09:16.890Z,26.50
2018-07-01T18:14:20.065Z,26.50
2018-07-01T18:19:23.268Z,26.50
2018-07-01T18:24:48.928Z,26.50
2018-07-01T18:29:29.653Z,26.50
2018-07-01T18:34:32.884Z,26.50
2018-07-01T18:39:36.133Z,26.50
2018-07-01T18:44:39.388Z,26.50
2018-07-01T18:49:42.588Z,26.50
2018-07-01T18:54:45.792Z,26.50
2018-07-01T18:59:49.012Z,26.40
2018-07-01T19:04:52.232Z,26.40
2018-07-01T19:09:55.425Z,26.40
2018-07-01T19:14:58.821Z,26.30
2018-07-01T19:20:02.068Z,26.30
2018-07-01T19:25:05.311Z,26.20
2018-07-01T19:30:08.564Z,26.20
2018-07-01T19:35:11.805Z,26.10
2018-07-01T19:40:15.079Z,26.10
2018-07-01T19:45:18.416Z,26.00
2018-07-01T19:50:21.660Z,25.90
2018-07-01T19:55:24.896Z,25.90
2018-07-01T20:00:28.139Z,25.80
2018-07-01T20:05:31.383Z,25.80
2018-07-01T20:10:34.739Z,25.70
2018-07-01T20:15:37.977Z,25.60
2018-07-01T20:20:41.180Z,25.60
2018-07-01T20:25:44.392Z,25.40
2018-07-01T20:30:47.571Z,25.40
2018-07-01T20:35:50.798Z,25.30
2018-07-01T20:40:53.975Z,25.20
2018-07-01T20:45:57.528Z,25.10
2018-07-01T20:51:00.765Z,25.00
2018-07-01T20:56:03.964Z,24.90
2018-07-01T21:01:07.151Z,24.80
2018-07-01T21:06:10.341Z,24.70
2018-07-01T21:11:13.528Z,24.70
2018-07-01T21:16:16.832Z,24.60
2018-07-01T21:21:20.051Z,24.50
2018-07-01T21:26:23.313Z,24.40
2018-07-01T21:31:26.543Z,24.40
2018-07-01T21:36:36.148Z,24.30
2018-07-01T21:41:40.508Z,24.20
2018-07-01T21:46:43.839Z,24.10
2018-07-01T21:51:47.112Z,24.10
2018-07-01T21:56:50.354Z,24.00
2018-07-01T22:01:53.642Z,23.90
2018-07-01T22:06:58.836Z,23.90
2018-07-01T22:12:13.415Z,23.80
2018-07-01T22:17:16.648Z,23.70
2018-07-01T22:22:19.867Z,23.70
2018-07-01T22:27:23.086Z,23.60
2018-07-01T22:32:26.307Z,23.50
2018-07-01T22:37:29.535Z,23.50
2018-07-01T22:42:32.972Z,23.40
2018-07-01T22:47:36.175Z,23.40
2018-07-01T22:52:39.415Z,23.30
2018-07-01T22:57:42.627Z,23.20
2018-07-01T23:03:01.183Z,22.80
2018-07-01T23:08:04.467Z,23.10
2018-07-01T23:13:07.753Z,23.00
2018-07-01T23:23:13.975Z,22.90
2018-07-01T23:28:17.176Z,22.90
2018-07-01T23:33:20.384Z,22.80
2018-07-01T23:38:23.613Z,22.70
2018-07-01T23:43:26.815Z,22.20
2018-07-01T23:48:30.018Z,22.60
2018-07-01T23:53:33.242Z,22.50
2018-07-01T23:58:36.464Z,22.60
